logo
Search for airport 
image banner adimage banner adimage banner ad
image banner ad

MRGP - Guapiles

Located in Pococi, Costa Rica

ICAO - MRGP, IATA - GPL

Data provided by Airmate  

General information

Coordinates: N10°13'2" W83°47'49"
Elevation is 883 feet MSL.
 
View others Airports in Limon

Operational data

Special qualification required
Current time UTC:
Current local time:
Weather at : MRPV - Tobias Bolanos Intl ( 47 km )
METAR: MRPV 202200Z 24006KT 9999 -RA VCSH FEW020TCU FEW040 SCT100 25/18 A3002 RESHRA NOSIG
TAF: TAF COR MRPV 201725Z 2018/2118 28006KT 9999 SCT030 TX30/2019Z TN19/2111Z TEMPO 2020/2024 TSRA SCT020CB BECMG 2101/2103 11009KT
View NOTAMs / SUP AIP / TFR affecting this airport [VIEW]
Communications frequencies: [VIEW]

Runways:

RWY identifierQFULength (ft)Width (ft)SurfaceLDA (ft)
0336°360933CON
21216°360933CON

Airport contact information

Address: Pococi Costa Rica

Satellite view of MRGP